sensor_id;sensor_type;location;lat;lon;timestamp;temperature;humidity
23827;DHT22;12094;50.822;4.376;2023-04-21T00:00:38;8.70;99.90
23827;DHT22;12094;50.822;4.376;2023-04-21T00:03:19;8.80;99.90
23827;DHT22;12094;50.822;4.376;2023-04-21T00:05:51;8.80;99.90
23827;DHT22;12094;50.822;4.376;2023-04-21T00:08:18;8.70;99.90
23827;DHT22;12094;50.822;4.376;2023-04-21T00:10:48;8.60;99.90
23827;DHT22;12094;50.822;4.376;2023-04-21T00:13:15;8.60;99.90
23827;DHT22;12094;50.822;4.376;2023-04-21T00:15:44;8.60;99.90
23827;DHT22;12094;50.822;4.376;2023-04-21T00:18:12;8.60;99.90
23827;DHT22;12094;50.822;4.376;2023-04-21T00:20:41;8.70;99.90
23827;DHT22;12094;50.822;4.376;2023-04-21T00:23:12;8.70;99.90
23827;DHT22;12094;50.822;4.376;2023-04-21T00:25:41;8.70;99.90
23827;DHT22;12094;50.822;4.376;2023-04-21T00:28:08;8.80;99.90
23827;DHT22;12094;50.822;4.376;2023-04-21T00:30:47;8.70;99.90
23827;DHT22;12094;50.822;4.376;2023-04-21T00:33:14;8.70;99.90
23827;DHT22;12094;50.822;4.376;2023-04-21T00:35:41;8.70;99.90
23827;DHT22;12094;50.822;4.376;2023-04-21T00:38:09;8.80;99.90
23827;DHT22;12094;50.822;4.376;2023-04-21T00:40:37;8.70;99.90
23827;DHT22;12094;50.822;4.376;2023-04-21T00:43:08;8.80;99.90
23827;DHT22;12094;50.822;4.376;2023-04-21T00:45:53;8.70;99.90
23827;DHT22;12094;50.822;4.376;2023-04-21T00:48:20;8.80;99.90
23827;DHT22;12094;50.822;4.376;2023-04-21T00:50:48;8.80;99.90
23827;DHT22;12094;50.822;4.376;2023-04-21T00:53:17;8.80;99.90
23827;DHT22;12094;50.822;4.376;2023-04-21T00:55:46;8.90;99.90
23827;DHT22;12094;50.822;4.376;2023-04-21T00:58:13;8.70;99.90
23827;DHT22;12094;50.822;4.376;2023-04-21T01:00:41;8.80;99.90
23827;DHT22;12094;50.822;4.376;2023-04-21T01:03:10;8.70;99.90
23827;DHT22;12094;50.822;4.376;2023-04-21T01:05:40;8.70;99.90
23827;DHT22;12094;50.822;4.376;2023-04-21T01:08:14;8.60;99.90
23827;DHT22;12094;50.822;4.376;2023-04-21T01:10:41;8.60;99.90
23827;DHT22;12094;50.822;4.376;2023-04-21T01:13:08;8.60;99.90
23827;DHT22;12094;50.822;4.376;2023-04-21T01:15:37;8.60;99.90
23827;DHT22;12094;50.822;4.376;2023-04-21T01:18:04;8.60;99.90
23827;DHT22;12094;50.822;4.376;2023-04-21T01:20:31;8.70;99.90
23827;DHT22;12094;50.822;4.376;2023-04-21T01:22:59;8.80;99.90
23827;DHT22;12094;50.822;4.376;2023-04-21T01:25:27;8.80;99.90
23827;DHT22;12094;50.822;4.376;2023-04-21T01:27:56;8.70;99.90
23827;DHT22;12094;50.822;4.376;2023-04-21T01:30:25;8.80;99.90
23827;DHT22;12094;50.822;4.376;2023-04-21T01:32:52;8.70;99.90
23827;DHT22;12094;50.822;4.376;2023-04-21T01:35:19;8.50;99.90
23827;DHT22;12094;50.822;4.376;2023-04-21T01:37:47;8.50;99.90
23827;DHT22;12094;50.822;4.376;2023-04-21T01:40:18;8.40;99.90
23827;DHT22;12094;50.822;4.376;2023-04-21T01:42:45;8.50;99.90
23827;DHT22;12094;50.822;4.376;2023-04-21T01:45:13;8.60;99.90
23827;DHT22;12094;50.822;4.376;2023-04-21T01:47:41;8.50;99.90
23827;DHT22;12094;50.822;4.376;2023-04-21T01:50:09;8.60;99.90
23827;DHT22;12094;50.822;4.376;2023-04-21T01:52:36;8.50;99.90
23827;DHT22;12094;50.822;4.376;2023-04-21T01:55:03;8.40;99.90
23827;DHT22;12094;50.822;4.376;2023-04-21T01:57:33;8.50;99.90
23827;DHT22;12094;50.822;4.376;2023-04-21T02:00:02;8.50;99.90
23827;DHT22;12094;50.822;4.376;2023-04-21T02:02:42;8.40;99.90
23827;DHT22;12094;50.822;4.376;2023-04-21T02:05:12;8.50;99.90
23827;DHT22;12094;50.822;4.376;2023-04-21T02:07:40;8.40;99.90
23827;DHT22;12094;50.822;4.376;2023-04-21T02:10:08;8.50;99.90
23827;DHT22;12094;50.822;4.376;2023-04-21T02:12:37;8.50;99.90
23827;DHT22;12094;50.822;4.376;2023-04-21T02:15:06;8.40;99.90
23827;DHT22;12094;50.822;4.376;2023-04-21T02:17:33;8.50;99.90
23827;DHT22;12094;50.822;4.376;2023-04-21T02:20:00;8.60;99.90
23827;DHT22;12094;50.822;4.376;2023-04-21T02:22:29;8.50;99.90
23827;DHT22;12094;50.822;4.376;2023-04-21T02:24:58;8.50;99.90
23827;DHT22;12094;50.822;4.376;2023-04-21T02:27:26;8.50;99.90
23827;DHT22;12094;50.822;4.376;2023-04-21T02:29:53;8.40;99.90
23827;DHT22;12094;50.822;4.376;2023-04-21T02:32:23;8.50;99.90
23827;DHT22;12094;50.822;4.376;2023-04-21T02:34:57;8.60;99.90
23827;DHT22;12094;50.822;4.376;2023-04-21T02:37:24;8.50;99.90
23827;DHT22;12094;50.822;4.376;2023-04-21T02:39:52;8.60;99.90
23827;DHT22;12094;50.822;4.376;2023-04-21T02:42:19;8.60;99.90
23827;DHT22;12094;50.822;4.376;2023-04-21T02:44:47;8.60;99.90
23827;DHT22;12094;50.822;4.376;2023-04-21T02:47:15;8.50;99.90
23827;DHT22;12094;50.822;4.376;2023-04-21T02:49:43;8.60;99.90
23827;DHT22;12094;50.822;4.376;2023-04-21T02:52:12;8.60;99.90
23827;DHT22;12094;50.822;4.376;2023-04-21T02:54:41;8.60;99.90
23827;DHT22;12094;50.822;4.376;2023-04-21T02:57:09;8.60;99.90
23827;DHT22;12094;50.822;4.376;2023-04-21T02:59:36;8.60;99.90
23827;DHT22;12094;50.822;4.376;2023-04-21T03:02:03;8.60;99.90
23827;DHT22;12094;50.822;4.376;2023-04-21T03:04:31;8.60;99.90
23827;DHT22;12094;50.822;4.376;2023-04-21T03:07:00;8.60;99.90
23827;DHT22;12094;50.822;4.376;2023-04-21T03:09:28;8.60;99.90
23827;DHT22;12094;50.822;4.376;2023-04-21T03:11:55;8.60;99.90
23827;DHT22;12094;50.822;4.376;2023-04-21T03:14:22;8.50;99.90
23827;DHT22;12094;50.822;4.376;2023-04-21T03:16:50;8.60;99.90
23827;DHT22;12094;50.822;4.376;2023-04-21T03:19:17;8.70;99.90
23827;DHT22;12094;50.822;4.376;2023-04-21T03:21:46;8.70;99.90
23827;DHT22;12094;50.822;4.376;2023-04-21T03:24:13;8.60;99.90
23827;DHT22;12094;50.822;4.376;2023-04-21T03:26:42;8.60;99.90
23827;DHT22;12094;50.822;4.376;2023-04-21T03:29:10;8.60;99.90
23827;DHT22;12094;50.822;4.376;2023-04-21T03:31:37;8.60;99.90
23827;DHT22;12094;50.822;4.376;2023-04-21T03:34:05;8.60;99.90
23827;DHT22;12094;50.822;4.376;2023-04-21T03:36:32;8.50;99.90
23827;DHT22;12094;50.822;4.376;2023-04-21T03:39:00;8.50;99.90
23827;DHT22;12094;50.822;4.376;2023-04-21T03:41:47;8.70;99.90
23827;DHT22;12094;50.822;4.376;2023-04-21T03:44:17;8.60;99.90
23827;DHT22;12094;50.822;4.376;2023-04-21T03:46:44;8.50;99.90
23827;DHT22;12094;50.822;4.376;2023-04-21T03:49:13;8.60;99.90
23827;DHT22;12094;50.822;4.376;2023-04-21T03:51:40;8.60;99.90
23827;DHT22;12094;50.822;4.376;2023-04-21T03:54:07;8.60;99.90
23827;DHT22;12094;50.822;4.376;2023-04-21T03:56:35;8.60;99.90
23827;DHT22;12094;50.822;4.376;2023-04-21T03:59:02;8.80;99.90
23827;DHT22;12094;50.822;4.376;2023-04-21T04:01:29;8.70;99.90
23827;DHT22;12094;50.822;4.376;2023-04-21T04:03:57;8.60;99.90
23827;DHT22;12094;50.822;4.376;2023-04-21T04:06:25;8.60;99.90
23827;DHT22;12094;50.822;4.376;2023-04-21T04:08:52;8.60;99.90
23827;DHT22;12094;50.822;4.376;2023-04-21T04:11:21;8.60;99.90
23827;DHT22;12094;50.822;4.376;2023-04-21T04:13:48;8.50;99.90
23827;DHT22;12094;50.822;4.376;2023-04-21T04:16:16;8.40;99.90
23827;DHT22;12094;50.822;4.376;2023-04-21T04:18:44;8.40;99.90
23827;DHT22;12094;50.822;4.376;2023-04-21T04:21:12;8.40;99.90
23827;DHT22;12094;50.822;4.376;2023-04-21T04:23:39;8.40;99.90
23827;DHT22;12094;50.822;4.376;2023-04-21T04:26:09;8.30;99.90
23827;DHT22;12094;50.822;4.376;2023-04-21T04:28:37;8.20;99.90
23827;DHT22;12094;50.822;4.376;2023-04-21T04:31:04;8.20;99.90
23827;DHT22;12094;50.822;4.376;2023-04-21T04:33:32;8.30;99.90
23827;DHT22;12094;50.822;4.376;2023-04-21T04:35:59;8.30;99.90
23827;DHT22;12094;50.822;4.376;2023-04-21T04:38:26;8.40;99.90
23827;DHT22;12094;50.822;4.376;2023-04-21T04:40:54;8.40;99.90
23827;DHT22;12094;50.822;4.376;2023-04-21T04:43:25;8.50;99.90
23827;DHT22;12094;50.822;4.376;2023-04-21T04:45:52;8.50;99.90
23827;DHT22;12094;50.822;4.376;2023-04-21T04:48:19;8.50;99.90
23827;DHT22;12094;50.822;4.376;2023-04-21T04:50:47;8.50;99.90
23827;DHT22;12094;50.822;4.376;2023-04-21T04:53:15;8.50;99.90
23827;DHT22;12094;50.822;4.376;2023-04-21T04:55:46;8.50;99.90
23827;DHT22;12094;50.822;4.376;2023-04-21T04:58:14;8.60;99.90
23827;DHT22;12094;50.822;4.376;2023-04-21T05:00:41;8.50;99.90
23827;DHT22;12094;50.822;4.376;2023-04-21T05:03:08;8.40;99.90
23827;DHT22;12094;50.822;4.376;2023-04-21T05:05:35;8.40;99.90
23827;DHT22;12094;50.822;4.376;2023-04-21T05:08:03;8.40;99.90
23827;DHT22;12094;50.822;4.376;2023-04-21T05:10:32;8.40;99.90
23827;DHT22;12094;50.822;4.376;2023-04-21T05:13:00;8.60;99.90
23827;DHT22;12094;50.822;4.376;2023-04-21T05:15:28;8.40;99.90
23827;DHT22;12094;50.822;4.376;2023-04-21T05:17:55;8.40;99.90
23827;DHT22;12094;50.822;4.376;2023-04-21T05:20:22;8.40;99.90
23827;DHT22;12094;50.822;4.376;2023-04-21T05:22:51;8.50;99.90
23827;DHT22;12094;50.822;4.376;2023-04-21T05:25:18;8.50;99.90
23827;DHT22;12094;50.822;4.376;2023-04-21T05:27:46;8.60;99.90
23827;DHT22;12094;50.822;4.376;2023-04-21T05:30:13;8.60;99.90
23827;DHT22;12094;50.822;4.376;2023-04-21T05:32:40;8.80;99.90
23827;DHT22;12094;50.822;4.376;2023-04-21T05:35:07;8.80;99.90
23827;DHT22;12094;50.822;4.376;2023-04-21T05:37:34;8.80;99.90
23827;DHT22;12094;50.822;4.376;2023-04-21T05:40:02;8.80;99.90
23827;DHT22;12094;50.822;4.376;2023-04-21T05:42:29;8.70;99.90
23827;DHT22;12094;50.822;4.376;2023-04-21T05:44:56;8.60;99.90
23827;DHT22;12094;50.822;4.376;2023-04-21T05:47:23;8.40;99.90
23827;DHT22;12094;50.822;4.376;2023-04-21T05:49:53;8.40;99.90
23827;DHT22;12094;50.822;4.376;2023-04-21T05:52:20;8.60;99.90
23827;DHT22;12094;50.822;4.376;2023-04-21T05:54:47;8.50;99.90
23827;DHT22;12094;50.822;4.376;2023-04-21T05:57:16;8.40;99.90
23827;DHT22;12094;50.822;4.376;2023-04-21T05:59:43;8.40;99.90
23827;DHT22;12094;50.822;4.376;2023-04-21T06:02:11;8.40;99.90
23827;DHT22;12094;50.822;4.376;2023-04-21T06:04:39;8.40;99.90
23827;DHT22;12094;50.822;4.376;2023-04-21T06:07:09;8.40;99.90
23827;DHT22;12094;50.822;4.376;2023-04-21T06:09:39;8.50;99.90
23827;DHT22;12094;50.822;4.376;2023-04-21T06:12:16;8.50;99.90
23827;DHT22;12094;50.822;4.376;2023-04-21T06:14:50;8.50;99.90
23827;DHT22;12094;50.822;4.376;2023-04-21T06:17:17;8.50;99.90
23827;DHT22;12094;50.822;4.376;2023-04-21T06:19:44;8.60;99.90
23827;DHT22;12094;50.822;4.376;2023-04-21T06:22:13;8.60;99.90
23827;DHT22;12094;50.822;4.376;2023-04-21T06:24:41;8.60;99.90
23827;DHT22;12094;50.822;4.376;2023-04-21T06:27:10;8.60;99.90
23827;DHT22;12094;50.822;4.376;2023-04-21T06:29:39;8.60;99.90
23827;DHT22;12094;50.822;4.376;2023-04-21T06:32:11;8.60;99.90
23827;DHT22;12094;50.822;4.376;2023-04-21T06:34:39;8.70;99.90
23827;DHT22;12094;50.822;4.376;2023-04-21T06:37:11;8.70;99.90
23827;DHT22;12094;50.822;4.376;2023-04-21T06:39:38;8.80;99.90
23827;DHT22;12094;50.822;4.376;2023-04-21T06:42:05;8.90;99.90
23827;DHT22;12094;50.822;4.376;2023-04-21T06:44:42;8.80;99.90
23827;DHT22;12094;50.822;4.376;2023-04-21T06:47:09;8.80;99.90
23827;DHT22;12094;50.822;4.376;2023-04-21T06:49:37;8.70;99.90
23827;DHT22;12094;50.822;4.376;2023-04-21T06:52:04;8.80;99.90
23827;DHT22;12094;50.822;4.376;2023-04-21T06:54:31;8.90;99.90
23827;DHT22;12094;50.822;4.376;2023-04-21T06:56:59;9.10;99.90
23827;DHT22;12094;50.822;4.376;2023-04-21T06:59:26;9.20;99.90
23827;DHT22;12094;50.822;4.376;2023-04-21T07:01:53;9.30;99.90
23827;DHT22;12094;50.822;4.376;2023-04-21T07:04:21;9.30;99.90
23827;DHT22;12094;50.822;4.376;2023-04-21T07:06:48;9.40;99.90
23827;DHT22;12094;50.822;4.376;2023-04-21T07:09:16;9.50;99.90
23827;DHT22;12094;50.822;4.376;2023-04-21T07:11:47;9.50;99.90
23827;DHT22;12094;50.822;4.376;2023-04-21T07:14:17;9.60;99.90
23827;DHT22;12094;50.822;4.376;2023-04-21T07:16:44;9.70;99.90
23827;DHT22;12094;50.822;4.376;2023-04-21T07:19:14;9.70;99.90
23827;DHT22;12094;50.822;4.376;2023-04-21T07:21:48;9.60;99.90
23827;DHT22;12094;50.822;4.376;2023-04-21T07:24:22;9.50;99.90
23827;DHT22;12094;50.822;4.376;2023-04-21T07:26:50;9.60;99.90
23827;DHT22;12094;50.822;4.376;2023-04-21T07:29:17;9.50;99.90
23827;DHT22;12094;50.822;4.376;2023-04-21T07:31:50;9.60;99.90
23827;DHT22;12094;50.822;4.376;2023-04-21T07:34:24;9.50;99.90
23827;DHT22;12094;50.822;4.376;2023-04-21T07:36:56;9.40;99.90
23827;DHT22;12094;50.822;4.376;2023-04-21T07:39:23;9.40;99.90
23827;DHT22;12094;50.822;4.376;2023-04-21T07:41:53;9.50;99.90
23827;DHT22;12094;50.822;4.376;2023-04-21T07:44:22;9.70;99.90
23827;DHT22;12094;50.822;4.376;2023-04-21T07:46:50;9.90;99.90
23827;DHT22;12094;50.822;4.376;2023-04-21T07:49:17;10.00;99.90
23827;DHT22;12094;50.822;4.376;2023-04-21T07:51:45;10.20;99.90
23827;DHT22;12094;50.822;4.376;2023-04-21T07:54:12;10.20;99.90
23827;DHT22;12094;50.822;4.376;2023-04-21T07:56:39;10.30;99.90
23827;DHT22;12094;50.822;4.376;2023-04-21T07:59:06;10.30;99.90
23827;DHT22;12094;50.822;4.376;2023-04-21T08:01:35;10.50;99.90
23827;DHT22;12094;50.822;4.376;2023-04-21T08:04:02;10.60;99.90
23827;DHT22;12094;50.822;4.376;2023-04-21T08:06:29;10.80;99.90
23827;DHT22;12094;50.822;4.376;2023-04-21T08:09:00;11.00;99.90
23827;DHT22;12094;50.822;4.376;2023-04-21T08:11:27;10.80;99.90
23827;DHT22;12094;50.822;4.376;2023-04-21T08:13:55;10.50;99.90
23827;DHT22;12094;50.822;4.376;2023-04-21T08:16:23;10.70;99.90
23827;DHT22;12094;50.822;4.376;2023-04-21T08:18:51;10.80;99.90
23827;DHT22;12094;50.822;4.376;2023-04-21T08:21:18;11.10;99.90
23827;DHT22;12094;50.822;4.376;2023-04-21T08:23:46;11.20;99.90
23827;DHT22;12094;50.822;4.376;2023-04-21T08:26:13;11.50;99.90
23827;DHT22;12094;50.822;4.376;2023-04-21T08:28:43;11.80;99.90
23827;DHT22;12094;50.822;4.376;2023-04-21T08:31:10;12.10;99.90
23827;DHT22;12094;50.822;4.376;2023-04-21T08:33:38;12.00;99.90
23827;DHT22;12094;50.822;4.376;2023-04-21T08:36:30;12.00;99.90
23827;DHT22;12094;50.822;4.376;2023-04-21T08:38:58;12.00;99.90
23827;DHT22;12094;50.822;4.376;2023-04-21T08:41:30;12.20;99.90
23827;DHT22;12094;50.822;4.376;2023-04-21T08:43:57;12.40;99.90
23827;DHT22;12094;50.822;4.376;2023-04-21T08:46:30;12.60;99.90
23827;DHT22;12094;50.822;4.376;2023-04-21T08:49:03;12.50;99.90
23827;DHT22;12094;50.822;4.376;2023-04-21T08:51:31;12.40;99.90
23827;DHT22;12094;50.822;4.376;2023-04-21T08:54:02;12.60;99.90
23827;DHT22;12094;50.822;4.376;2023-04-21T08:56:33;12.60;99.90
23827;DHT22;12094;50.822;4.376;2023-04-21T08:59:01;12.70;99.90
23827;DHT22;12094;50.822;4.376;2023-04-21T09:01:28;13.00;99.90
23827;DHT22;12094;50.822;4.376;2023-04-21T09:04:16;12.90;99.90
23827;DHT22;12094;50.822;4.376;2023-04-21T09:06:44;12.90;99.90
23827;DHT22;12094;50.822;4.376;2023-04-21T09:09:13;12.70;99.90
23827;DHT22;12094;50.822;4.376;2023-04-21T09:11:40;12.70;99.90
23827;DHT22;12094;50.822;4.376;2023-04-21T09:14:07;12.80;99.90
23827;DHT22;12094;50.822;4.376;2023-04-21T09:16:36;13.00;99.90
23827;DHT22;12094;50.822;4.376;2023-04-21T09:19:13;13.10;99.90
23827;DHT22;12094;50.822;4.376;2023-04-21T09:21:43;13.20;99.90
23827;DHT22;12094;50.822;4.376;2023-04-21T09:24:12;13.20;99.90
23827;DHT22;12094;50.822;4.376;2023-04-21T09:26:41;13.20;99.90
23827;DHT22;12094;50.822;4.376;2023-04-21T09:29:09;13.40;99.90
23827;DHT22;12094;50.822;4.376;2023-04-21T09:31:36;13.50;99.90
23827;DHT22;12094;50.822;4.376;2023-04-21T09:34:19;13.60;99.90
23827;DHT22;12094;50.822;4.376;2023-04-21T09:36:47;13.60;99.90
23827;DHT22;12094;50.822;4.376;2023-04-21T09:39:14;13.50;99.90
23827;DHT22;12094;50.822;4.376;2023-04-21T09:41:46;13.30;99.90
23827;DHT22;12094;50.822;4.376;2023-04-21T09:44:13;13.50;99.90
23827;DHT22;12094;50.822;4.376;2023-04-21T09:46:43;13.70;99.90
23827;DHT22;12094;50.822;4.376;2023-04-21T09:49:13;13.80;99.90
23827;DHT22;12094;50.822;4.376;2023-04-21T09:51:42;13.80;99.90
23827;DHT22;12094;50.822;4.376;2023-04-21T09:54:32;14.00;99.90
23827;DHT22;12094;50.822;4.376;2023-04-21T09:57:03;14.00;99.90
23827;DHT22;12094;50.822;4.376;2023-04-21T09:59:39;14.10;99.90
23827;DHT22;12094;50.822;4.376;2023-04-21T10:02:11;14.30;99.90
23827;DHT22;12094;50.822;4.376;2023-04-21T10:04:41;14.40;99.90
23827;DHT22;12094;50.822;4.376;2023-04-21T10:07:10;14.30;99.90
23827;DHT22;12094;50.822;4.376;2023-04-21T10:12:26;14.60;99.90
23827;DHT22;12094;50.822;4.376;2023-04-21T10:14:56;14.60;99.90
23827;DHT22;12094;50.822;4.376;2023-04-21T10:17:25;14.60;99.90
23827;DHT22;12094;50.822;4.376;2023-04-21T10:19:56;14.70;99.90
23827;DHT22;12094;50.822;4.376;2023-04-21T10:22:31;14.70;99.90
23827;DHT22;12094;50.822;4.376;2023-04-21T10:25:01;14.50;99.90
23827;DHT22;12094;50.822;4.376;2023-04-21T10:27:36;14.40;99.90
23827;DHT22;12094;50.822;4.376;2023-04-21T10:30:23;14.60;99.90
23827;DHT22;12094;50.822;4.376;2023-04-21T10:33:04;14.80;99.90
23827;DHT22;12094;50.822;4.376;2023-04-21T10:38:40;14.90;99.90
23827;DHT22;12094;50.822;4.376;2023-04-21T10:41:27;15.00;99.90
23827;DHT22;12094;50.822;4.376;2023-04-21T10:43:58;14.90;99.90
23827;DHT22;12094;50.822;4.376;2023-04-21T10:46:39;14.90;99.90
23827;DHT22;12094;50.822;4.376;2023-04-21T10:49:10;15.10;99.90
23827;DHT22;12094;50.822;4.376;2023-04-21T10:54:43;15.30;99.90
23827;DHT22;12094;50.822;4.376;2023-04-21T10:57:32;15.40;99.90
23827;DHT22;12094;50.822;4.376;2023-04-21T11:00:04;15.40;99.90
23827;DHT22;12094;50.822;4.376;2023-04-21T11:02:34;15.50;99.90
23827;DHT22;12094;50.822;4.376;2023-04-21T11:05:12;15.60;99.90
23827;DHT22;12094;50.822;4.376;2023-04-21T11:07:40;15.70;99.90
23827;DHT22;12094;50.822;4.376;2023-04-21T11:10:09;15.90;99.90
23827;DHT22;12094;50.822;4.376;2023-04-21T11:12:40;16.00;99.90
23827;DHT22;12094;50.822;4.376;2023-04-21T11:15:09;16.20;99.90
23827;DHT22;12094;50.822;4.376;2023-04-21T11:17:37;16.60;99.90
23827;DHT22;12094;50.822;4.376;2023-04-21T11:20:06;16.70;99.90
23827;DHT22;12094;50.822;4.376;2023-04-21T11:22:36;17.10;99.90
23827;DHT22;12094;50.822;4.376;2023-04-21T11:25:04;17.50;99.90
23827;DHT22;12094;50.822;4.376;2023-04-21T11:27:32;17.90;99.90
23827;DHT22;12094;50.822;4.376;2023-04-21T11:30:02;18.20;99.90
23827;DHT22;12094;50.822;4.376;2023-04-21T11:32:29;18.60;99.90
23827;DHT22;12094;50.822;4.376;2023-04-21T11:34:57;18.80;99.90
23827;DHT22;12094;50.822;4.376;2023-04-21T11:37:25;19.00;99.90
23827;DHT22;12094;50.822;4.376;2023-04-21T11:39:57;19.70;99.90
23827;DHT22;12094;50.822;4.376;2023-04-21T11:42:25;20.40;99.40
23827;DHT22;12094;50.822;4.376;2023-04-21T11:44:54;20.40;98.20
23827;DHT22;12094;50.822;4.376;2023-04-21T11:47:26;20.20;98.20
23827;DHT22;12094;50.822;4.376;2023-04-21T11:49:56;19.90;98.30
23827;DHT22;12094;50.822;4.376;2023-04-21T11:52:28;20.30;97.50
23827;DHT22;12094;50.822;4.376;2023-04-21T11:55:04;20.60;95.90
23827;DHT22;12094;50.822;4.376;2023-04-21T11:57:35;20.90;94.80
23827;DHT22;12094;50.822;4.376;2023-04-21T12:00:04;21.10;94.10
23827;DHT22;12094;50.822;4.376;2023-04-21T12:02:38;21.30;93.60
23827;DHT22;12094;50.822;4.376;2023-04-21T12:05:10;21.70;92.30
23827;DHT22;12094;50.822;4.376;2023-04-21T12:07:40;21.50;91.70
23827;DHT22;12094;50.822;4.376;2023-04-21T12:10:16;21.40;91.40
23827;DHT22;12094;50.822;4.376;2023-04-21T12:12:44;21.00;92.10
23827;DHT22;12094;50.822;4.376;2023-04-21T12:15:17;21.00;91.60
23827;DHT22;12094;50.822;4.376;2023-04-21T12:17:51;21.10;91.10
23827;DHT22;12094;50.822;4.376;2023-04-21T12:20:22;20.90;91.20
23827;DHT22;12094;50.822;4.376;2023-04-21T12:22:49;21.40;90.40
23827;DHT22;12094;50.822;4.376;2023-04-21T12:25:17;21.30;89.20
23827;DHT22;12094;50.822;4.376;2023-04-21T12:27:51;21.60;87.20
23827;DHT22;12094;50.822;4.376;2023-04-21T12:30:20;20.60;88.20
23827;DHT22;12094;50.822;4.376;2023-04-21T12:32:48;20.80;88.10
23827;DHT22;12094;50.822;4.376;2023-04-21T12:35:18;21.40;85.40
23827;DHT22;12094;50.822;4.376;2023-04-21T12:37:45;21.60;82.00
23827;DHT22;12094;50.822;4.376;2023-04-21T12:40:12;21.50;82.60
23827;DHT22;12094;50.822;4.376;2023-04-21T12:42:43;21.10;84.30
23827;DHT22;12094;50.822;4.376;2023-04-21T12:45:11;21.20;83.30
23827;DHT22;12094;50.822;4.376;2023-04-21T12:47:39;20.90;82.90
23827;DHT22;12094;50.822;4.376;2023-04-21T12:50:10;21.20;82.30
23827;DHT22;12094;50.822;4.376;2023-04-21T12:52:38;21.40;80.00
23827;DHT22;12094;50.822;4.376;2023-04-21T12:55:05;21.80;78.20
23827;DHT22;12094;50.822;4.376;2023-04-21T12:57:33;22.10;76.70
23827;DHT22;12094;50.822;4.376;2023-04-21T13:00:00;22.00;75.50
23827;DHT22;12094;50.822;4.376;2023-04-21T13:02:27;21.30;76.80
23827;DHT22;12094;50.822;4.376;2023-04-21T13:04:56;21.80;76.90
23827;DHT22;12094;50.822;4.376;2023-04-21T13:07:27;22.00;76.80
23827;DHT22;12094;50.822;4.376;2023-04-21T13:09:57;21.90;76.40
23827;DHT22;12094;50.822;4.376;2023-04-21T13:12:24;22.20;76.50
23827;DHT22;12094;50.822;4.376;2023-04-21T13:14:51;22.30;76.40
23827;DHT22;12094;50.822;4.376;2023-04-21T13:17:18;22.40;76.40
23827;DHT22;12094;50.822;4.376;2023-04-21T13:19:46;22.40;76.70
23827;DHT22;12094;50.822;4.376;2023-04-21T13:22:14;22.60;74.90
23827;DHT22;12094;50.822;4.376;2023-04-21T13:24:44;22.60;74.40
23827;DHT22;12094;50.822;4.376;2023-04-21T13:27:14;22.00;74.90
23827;DHT22;12094;50.822;4.376;2023-04-21T13:29:42;22.10;75.90
23827;DHT22;12094;50.822;4.376;2023-04-21T13:32:09;22.30;74.80
23827;DHT22;12094;50.822;4.376;2023-04-21T13:34:36;22.10;74.90
23827;DHT22;12094;50.822;4.376;2023-04-21T13:37:04;22.20;75.80
23827;DHT22;12094;50.822;4.376;2023-04-21T13:39:33;22.10;75.70
23827;DHT22;12094;50.822;4.376;2023-04-21T13:42:03;22.20;76.60
23827;DHT22;12094;50.822;4.376;2023-04-21T13:44:31;22.50;75.90
23827;DHT22;12094;50.822;4.376;2023-04-21T13:46:59;22.80;74.40
23827;DHT22;12094;50.822;4.376;2023-04-21T13:49:26;22.90;73.30
23827;DHT22;12094;50.822;4.376;2023-04-21T13:51:53;22.50;72.00
23827;DHT22;12094;50.822;4.376;2023-04-21T13:54:21;22.20;74.60
23827;DHT22;12094;50.822;4.376;2023-04-21T13:56:49;21.90;75.80
23827;DHT22;12094;50.822;4.376;2023-04-21T13:59:17;21.60;74.60
23827;DHT22;12094;50.822;4.376;2023-04-21T14:01:47;21.60;74.40
23827;DHT22;12094;50.822;4.376;2023-04-21T14:04:14;21.70;73.50
23827;DHT22;12094;50.822;4.376;2023-04-21T14:06:41;21.90;72.80
23827;DHT22;12094;50.822;4.376;2023-04-21T14:09:10;21.80;72.90
23827;DHT22;12094;50.822;4.376;2023-04-21T14:12:05;21.80;72.60
23827;DHT22;12094;50.822;4.376;2023-04-21T14:14:59;22.10;72.20
23827;DHT22;12094;50.822;4.376;2023-04-21T14:17:31;22.30;72.00
23827;DHT22;12094;50.822;4.376;2023-04-21T14:19:58;22.50;71.50
23827;DHT22;12094;50.822;4.376;2023-04-21T14:22:25;21.70;72.20
23827;DHT22;12094;50.822;4.376;2023-04-21T14:24:54;21.20;71.90
23827;DHT22;12094;50.822;4.376;2023-04-21T14:27:22;20.90;73.00
23827;DHT22;12094;50.822;4.376;2023-04-21T14:29:50;20.60;74.90
23827;DHT22;12094;50.822;4.376;2023-04-21T14:32:17;20.20;75.00
23827;DHT22;12094;50.822;4.376;2023-04-21T14:39:06;19.90;77.10
23827;DHT22;12094;50.822;4.376;2023-04-21T14:41:33;19.70;77.40
23827;DHT22;12094;50.822;4.376;2023-04-21T14:44:02;19.70;77.80
23827;DHT22;12094;50.822;4.376;2023-04-21T14:46:32;19.40;79.10
23827;DHT22;12094;50.822;4.376;2023-04-21T14:49:00;19.40;80.10
23827;DHT22;12094;50.822;4.376;2023-04-21T14:51:27;19.40;79.70
23827;DHT22;12094;50.822;4.376;2023-04-21T14:53:54;19.30;80.10
23827;DHT22;12094;50.822;4.376;2023-04-21T14:56:21;19.20;79.30
23827;DHT22;12094;50.822;4.376;2023-04-21T14:58:48;19.20;79.80
23827;DHT22;12094;50.822;4.376;2023-04-21T15:01:17;19.10;80.50
23827;DHT22;12094;50.822;4.376;2023-04-21T15:04:10;19.10;80.30
23827;DHT22;12094;50.822;4.376;2023-04-21T15:06:38;19.40;80.20
23827;DHT22;12094;50.822;4.376;2023-04-21T15:09:05;19.40;80.70
23827;DHT22;12094;50.822;4.376;2023-04-21T15:11:32;19.20;81.00
23827;DHT22;12094;50.822;4.376;2023-04-21T15:14:00;19.00;81.40
23827;DHT22;12094;50.822;4.376;2023-04-21T15:16:27;18.90;81.30
23827;DHT22;12094;50.822;4.376;2023-04-21T15:18:54;18.80;81.70
23827;DHT22;12094;50.822;4.376;2023-04-21T15:21:22;18.70;82.60
23827;DHT22;12094;50.822;4.376;2023-04-21T15:23:51;18.80;82.60
23827;DHT22;12094;50.822;4.376;2023-04-21T15:26:20;18.80;82.80
23827;DHT22;12094;50.822;4.376;2023-04-21T15:28:50;18.80;83.10
23827;DHT22;12094;50.822;4.376;2023-04-21T15:31:18;18.80;84.00
23827;DHT22;12094;50.822;4.376;2023-04-21T15:33:47;18.70;84.10
23827;DHT22;12094;50.822;4.376;2023-04-21T15:36:14;18.60;84.70
23827;DHT22;12094;50.822;4.376;2023-04-21T15:38:41;18.50;85.80
23827;DHT22;12094;50.822;4.376;2023-04-21T15:41:09;18.60;86.20
23827;DHT22;12094;50.822;4.376;2023-04-21T15:43:37;18.70;85.80
23827;DHT22;12094;50.822;4.376;2023-04-21T15:46:05;18.70;85.70
23827;DHT22;12094;50.822;4.376;2023-04-21T15:48:39;18.60;85.90
23827;DHT22;12094;50.822;4.376;2023-04-21T15:51:11;18.40;86.80
23827;DHT22;12094;50.822;4.376;2023-04-21T15:53:55;18.50;87.10
23827;DHT22;12094;50.822;4.376;2023-04-21T15:56:23;18.60;87.90
23827;DHT22;12094;50.822;4.376;2023-04-21T15:58:50;18.50;88.00
23827;DHT22;12094;50.822;4.376;2023-04-21T16:01:18;18.30;87.70
23827;DHT22;12094;50.822;4.376;2023-04-21T16:03:48;18.30;88.60